Terminal Aerodrome Forecast
Issued by NWS

Home | Current Version | Previous Version | Text Only | Print | Product List | Glossary On
Versions: 1 2 3 4 5 6 7 8 9 10 11 12 13 14 15 16 17 18 19 20
000
FTUS42 KFFC 260100 AAA
TAFPDK
TAF AMD
KPDK 260100Z 2601/2624 30012G18KT P6SM SKC
     FM260200 31008KT P6SM SKC
     FM260900 32005KT P6SM SKC
     FM262000 VRB03KT P6SM SCT250=

USA.gov is the U.S. government's official web portal to all federal, state and local government web resources and services.